Time;durP1;ratioP1;P1;durP2;ratioP2;P2;SDS_P1;SDS_P2;PMS_P1;PMS_P2;Temp;Humidity;BMP_temperature;BMP_pressure;BME280_temperature;BME280_humidity;BME280_pressure;Samples;Min_cycle;Max_cycle;Signal;HPM_P1;HPM_P2
2022/12/15 00:38:49;;;;;;;32.57;19.87;;;;;;;;;;5115093;28;20949;-72
2022/12/15 00:41:19;;;;;;;37.60;20.93;;;;;;;;;;5115137;28;20544;-72
2022/12/15 00:43:46;;;;;;;41.03;21.80;;;;;;;;;;5114885;28;20445;-73
2022/12/15 00:48:58;;;;;;;40.10;20.03;;;;;;;;;;5114790;28;20577;-72
2022/12/15 01:21:40;;;;;;;40.27;24.13;;;;;;;;;;5114434;28;20421;-71
2022/12/15 01:24:07;;;;;;;44.80;22.23;;;;;;;;;;5113861;28;20453;-71
2022/12/15 01:26:34;;;;;;;47.60;24.63;;;;;;;;;;5114317;28;20446;-71
2022/12/15 01:29:03;;;;;;;42.63;22.60;;;;;;;;;;5114465;28;20829;-71
2022/12/15 01:31:30;;;;;;;43.50;23.13;;;;;;;;;;5112671;28;20912;-71
2022/12/15 01:33:57;;;;;;;50.70;24.60;;;;;;;;;;5114010;28;20803;-71
2022/12/15 01:36:24;;;;;;;46.60;23.37;;;;;;;;;;5114030;28;20446;-72
2022/12/15 01:38:51;;;;;;;41.50;23.80;;;;;;;;;;5113976;28;20466;-71
2022/12/15 01:41:18;;;;;;;36.17;21.93;;;;;;;;;;5114177;28;20947;-71
2022/12/15 01:43:45;;;;;;;42.10;22.97;;;;;;;;;;5113489;28;20453;-71
2022/12/15 01:46:16;;;;;;;37.63;21.23;;;;;;;;;;5113938;28;20450;-71
2022/12/15 01:48:44;;;;;;;45.87;23.80;;;;;;;;;;5113987;28;20465;-71
2022/12/15 01:51:15;;;;;;;46.70;23.80;;;;;;;;;;5114113;28;20449;-71
2022/12/15 01:53:44;;;;;;;45.53;23.13;;;;;;;;;;5113459;28;20455;-71
2022/12/15 01:56:11;;;;;;;50.37;25.43;;;;;;;;;;5113781;28;20449;-71
2022/12/15 01:58:40;;;;;;;41.53;23.87;;;;;;;;;;5113936;28;20482;-71
2022/12/15 02:01:08;;;;;;;43.63;23.63;;;;;;;;;;5113662;28;20452;-71
2022/12/15 02:03:37;;;;;;;43.93;26.33;;;;;;;;;;5112714;28;20453;-71
2022/12/15 02:06:04;;;;;;;49.53;25.10;;;;;;;;;;5113588;28;20454;-71
2022/12/15 02:08:31;;;;;;;43.03;24.50;;;;;;;;;;5113649;28;20479;-71
2022/12/15 02:11:07;;;;;;;41.30;23.30;;;;;;;;;;5113634;28;20496;-71
2022/12/15 02:13:39;;;;;;;40.83;23.67;;;;;;;;;;5113492;28;20448;-71
2022/12/15 02:16:14;;;;;;;40.07;22.43;;;;;;;;;;5113885;28;20465;-71
2022/12/15 02:18:48;;;;;;;48.47;25.40;;;;;;;;;;5113747;27;20469;-71
2022/12/15 02:21:18;;;;;;;43.90;25.57;;;;;;;;;;5113656;28;20449;-70
2022/12/15 02:24:01;;;;;;;42.33;26.00;;;;;;;;;;5113131;28;20452;-71
2022/12/15 02:26:58;;;;;;;41.17;23.30;;;;;;;;;;5113796;28;20442;-70
2022/12/15 02:29:46;;;;;;;40.70;23.40;;;;;;;;;;5113353;28;20554;-70
2022/12/15 02:32:15;;;;;;;48.83;23.40;;;;;;;;;;5086454;28;20789;-70
2022/12/15 02:34:45;;;;;;;43.87;24.33;;;;;;;;;;5113597;28;20528;-70
2022/12/15 02:37:14;;;;;;;47.47;23.67;;;;;;;;;;5113595;28;20469;-70
2022/12/15 02:39:41;;;;;;;43.30;21.03;;;;;;;;;;5113576;28;20437;-71
2022/12/15 02:42:09;;;;;;;48.97;24.00;;;;;;;;;;5113607;28;20441;-70
2022/12/15 02:44:39;;;;;;;39.90;22.73;;;;;;;;;;5113324;28;20788;-70
2022/12/15 02:47:14;;;;;;;42.13;24.30;;;;;;;;;;5112894;28;20469;-71
2022/12/15 02:49:47;;;;;;;41.23;21.40;;;;;;;;;;5113560;28;20981;-70
2022/12/15 02:52:21;;;;;;;39.00;21.43;;;;;;;;;;5113166;28;20449;-71
2022/12/15 02:55:00;;;;;;;35.90;20.77;;;;;;;;;;5112640;28;20962;-70
2022/12/15 02:57:32;;;;;;;42.73;23.30;;;;;;;;;;5113114;28;20465;-71
2022/12/15 03:00:02;;;;;;;36.57;20.40;;;;;;;;;;5112876;28;20452;-70
2022/12/15 03:02:31;;;;;;;43.10;22.07;;;;;;;;;;5112972;28;20460;-70
2022/12/15 03:05:00;;;;;;;37.37;24.17;;;;;;;;;;5112248;28;20510;-70
2022/12/15 03:07:27;;;;;;;46.57;22.93;;;;;;;;;;5112772;28;20477;-70
2022/12/15 03:09:55;;;;;;;39.07;19.80;;;;;;;;;;5112508;28;20491;-71
2022/12/15 03:12:22;;;;;;;47.00;24.43;;;;;;;;;;5112984;28;20859;-70
2022/12/15 03:14:49;;;;;;;44.40;24.37;;;;;;;;;;5114397;28;20947;-70
2022/12/15 03:17:16;;;;;;;44.57;23.00;;;;;;;;;;5116748;28;20484;-70
2022/12/15 03:19:44;;;;;;;43.43;23.23;;;;;;;;;;5116697;28;20442;-70
2022/12/15 03:22:12;;;;;;;44.37;23.80;;;;;;;;;;5116965;28;20820;-71
2022/12/15 03:24:39;;;;;;;44.17;25.40;;;;;;;;;;5116348;28;20445;-70
2022/12/15 03:27:07;;;;;;;43.40;24.23;;;;;;;;;;5116847;28;20842;-70
2022/12/15 03:29:34;;;;;;;43.10;22.13;;;;;;;;;;5116454;28;20492;-70
2022/12/15 03:32:01;;;;;;;49.83;24.67;;;;;;;;;;5114893;28;20457;-70
2022/12/15 03:34:28;;;;;;;45.90;24.77;;;;;;;;;;5116029;28;20942;-70
2022/12/15 03:36:55;;;;;;;48.03;24.10;;;;;;;;;;5116127;27;20484;-70
2022/12/15 03:39:24;;;;;;;43.23;23.43;;;;;;;;;;5116342;28;20442;-70
2022/12/15 03:41:51;;;;;;;45.33;19.90;;;;;;;;;;5116298;28;20453;-70
2022/12/15 03:44:18;;;;;;;41.20;23.10;;;;;;;;;;5115698;28;20457;-70
2022/12/15 03:46:46;;;;;;;45.00;24.30;;;;;;;;;;5116566;28;20969;-70
2022/12/15 03:49:13;;;;;;;44.70;24.27;;;;;;;;;;5116282;28;20453;-70
2022/12/15 03:51:40;;;;;;;51.43;23.90;;;;;;;;;;5116343;28;20452;-71
2022/12/15 03:54:07;;;;;;;33.03;17.47;;;;;;;;;;5115634;27;20839;-70
2022/12/15 03:56:36;;;;;;;36.97;19.50;;;;;;;;;;5115976;28;20449;-70
2022/12/15 03:59:03;;;;;;;40.97;25.30;;;;;;;;;;5116132;28;20442;-70
2022/12/15 04:01:31;;;;;;;48.63;23.90;;;;;;;;;;5116237;28;20448;-70
2022/12/15 04:03:59;;;;;;;47.20;24.37;;;;;;;;;;5115638;28;20449;-70
2022/12/15 04:06:26;;;;;;;27.33;16.23;;;;;;;;;;5116224;28;20457;-71
2022/12/15 04:08:53;;;;;;;37.80;18.60;;;;;;;;;;5115850;28;21046;-70
2022/12/15 04:11:20;;;;;;;50.33;26.30;;;;;;;;;;5116166;28;20486;-70
2022/12/15 04:13:49;;;;;;;58.30;26.30;;;;;;;;;;5115518;28;20673;-70
2022/12/15 04:16:16;;;;;;;49.47;28.33;;;;;;;;;;5115643;28;20465;-71
2022/12/15 04:18:43;;;;;;;49.67;25.00;;;;;;;;;;5115473;28;20465;-71
2022/12/15 04:21:09;;;;;;;52.37;25.33;;;;;;;;;;5115746;28;20442;-70
2022/12/15 04:23:36;;;;;;;55.00;26.80;;;;;;;;;;5115123;28;20453;-71
2022/12/15 05:32:10;;;;;;;55.10;28.20;;;;;;;;;;5112347;28;20483;-70
2022/12/15 05:34:39;;;;;;;58.90;28.00;;;;;;;;;;5113505;28;20454;-70
2022/12/15 05:37:06;;;;;;;80.90;36.60;;;;;;;;;;5113537;28;20496;-71
2022/12/15 05:39:33;;;;;;;60.97;29.10;;;;;;;;;;5113609;28;20498;-71
2022/12/15 05:42:01;;;;;;;60.40;26.87;;;;;;;;;;5113971;27;20450;-70
2022/12/15 05:44:28;;;;;;;55.03;27.50;;;;;;;;;;5113416;28;20454;-70
2022/12/15 05:46:55;;;;;;;44.20;22.43;;;;;;;;;;5113815;28;20505;-70
2022/12/15 05:49:23;;;;;;;59.97;29.17;;;;;;;;;;5113929;28;20823;-70
2022/12/15 05:51:51;;;;;;;47.70;26.70;;;;;;;;;;5113835;28;20477;-70
2022/12/15 05:54:20;;;;;;;67.63;28.80;;;;;;;;;;5113303;28;20861;-70
2022/12/15 05:56:48;;;;;;;54.80;25.93;;;;;;;;;;5113454;28;20954;-71
2022/12/15 05:59:16;;;;;;;55.90;29.23;;;;;;;;;;5113780;28;20454;-70
2022/12/15 06:01:43;;;;;;;53.10;25.80;;;;;;;;;;5113572;28;20949;-69
2022/12/15 06:04:11;;;;;;;57.17;28.43;;;;;;;;;;5112965;28;20454;-69
2022/12/15 06:06:38;;;;;;;57.03;26.93;;;;;;;;;;5097592;28;20470;-69
2022/12/15 06:09:07;;;;;;;57.23;27.90;;;;;;;;;;5093113;28;20442;-69
2022/12/15 06:11:34;;;;;;;55.63;29.27;;;;;;;;;;5092985;28;20486;-70
2022/12/15 06:14:01;;;;;;;44.60;25.90;;;;;;;;;;5099020;28;20454;-71
2022/12/15 06:16:29;;;;;;;59.30;28.00;;;;;;;;;;5092862;28;20951;-71
2022/12/15 06:18:57;;;;;;;58.57;27.80;;;;;;;;;;5092581;28;20501;-70
2022/12/15 06:21:25;;;;;;;56.90;26.70;;;;;;;;;;5092720;28;20435;-70
2022/12/15 06:23:52;;;;;;;53.33;25.07;;;;;;;;;;5092250;28;20465;-71
2022/12/15 06:26:22;;;;;;;59.33;27.90;;;;;;;;;;5092112;28;20966;-71
2022/12/15 06:28:50;;;;;;;55.90;27.87;;;;;;;;;;5092615;28;20578;-70
2022/12/15 06:31:21;;;;;;;62.40;28.47;;;;;;;;;;5091012;28;20486;-70
2022/12/15 06:33:48;;;;;;;53.50;27.83;;;;;;;;;;5092139;28;20991;-70
2022/12/15 06:36:16;;;;;;;47.37;25.23;;;;;;;;;;5092533;28;20454;-70
2022/12/15 06:38:43;;;;;;;65.83;31.17;;;;;;;;;;5092438;28;20470;-70
2022/12/15 06:41:11;;;;;;;56.53;25.10;;;;;;;;;;5092791;28;20442;-70
2022/12/15 06:43:40;;;;;;;49.10;26.10;;;;;;;;;;5091931;28;20516;-70
2022/12/15 06:46:07;;;;;;;51.60;26.17;;;;;;;;;;5092514;28;20798;-70
2022/12/15 06:48:35;;;;;;;57.73;26.63;;;;;;;;;;5092352;28;20479;-70
2022/12/15 06:51:03;;;;;;;63.13;28.73;;;;;;;;;;5096598;28;20486;-69
2022/12/15 06:53:30;;;;;;;50.77;24.27;;;;;;;;;;5096404;28;20450;-70
2022/12/15 06:56:00;;;;;;;53.40;26.33;;;;;;;;;;5096304;28;20979;-72
2022/12/15 06:58:27;;;;;;;50.27;25.23;;;;;;;;;;5096625;28;20987;-70
2022/12/15 07:00:56;;;;;;;55.10;26.17;;;;;;;;;;5096635;28;20507;-70
2022/12/15 07:03:23;;;;;;;63.73;26.97;;;;;;;;;;5096330;28;20462;-71
2022/12/15 07:06:00;;;;;;;53.40;26.43;;;;;;;;;;5096106;28;20456;-70
2022/12/15 07:08:27;;;;;;;48.53;24.37;;;;;;;;;;5096731;28;21005;-70
2022/12/15 07:10:55;;;;;;;50.20;26.70;;;;;;;;;;5096468;28;20494;-70
2022/12/15 07:13:22;;;;;;;58.87;28.17;;;;;;;;;;5096474;28;20454;-70
2022/12/15 07:15:49;;;;;;;53.17;26.67;;;;;;;;;;5095986;28;20457;-71
2022/12/15 07:18:18;;;;;;;53.23;26.00;;;;;;;;;;5096511;28;20470;-70
2022/12/15 07:20:45;;;;;;;53.40;29.57;;;;;;;;;;5096446;28;20965;-70
2022/12/15 07:23:12;;;;;;;44.10;24.53;;;;;;;;;;5096465;28;20443;-70
2022/12/15 07:25:40;;;;;;;49.33;24.70;;;;;;;;;;5095894;28;20442;-71
2022/12/15 07:28:07;;;;;;;46.17;25.00;;;;;;;;;;5096038;28;20479;-70
2022/12/15 07:30:34;;;;;;;50.17;25.83;;;;;;;;;;5094684;28;20486;-70
2022/12/15 07:33:02;;;;;;;53.97;26.77;;;;;;;;;;5096072;28;20827;-71
2022/12/15 07:35:30;;;;;;;52.57;29.27;;;;;;;;;;5114334;27;20469;-70
2022/12/15 07:37:59;;;;;;;53.33;26.53;;;;;;;;;;5116225;28;20820;-70
2022/12/15 07:40:26;;;;;;;56.00;28.90;;;;;;;;;;5116405;28;20527;-70
2022/12/15 07:42:53;;;;;;;59.70;26.63;;;;;;;;;;5116212;28;20452;-70
2022/12/15 07:45:20;;;;;;;48.80;27.10;;;;;;;;;;5115808;28;20445;-70
2022/12/15 07:47:50;;;;;;;47.87;23.00;;;;;;;;;;5116074;28;20473;-70
2022/12/15 07:50:17;;;;;;;45.63;25.90;;;;;;;;;;5116171;28;20801;-70
2022/12/15 07:52:46;;;;;;;55.10;24.27;;;;;;;;;;5116076;28;20445;-70
2022/12/15 07:55:13;;;;;;;49.07;23.50;;;;;;;;;;5115814;28;20445;-70
2022/12/15 07:57:40;;;;;;;52.73;26.13;;;;;;;;;;5115919;28;20469;-70
2022/12/15 08:00:09;;;;;;;58.43;27.17;;;;;;;;;;5115566;28;20944;-70
2022/12/15 08:02:36;;;;;;;36.17;20.97;;;;;;;;;;5115542;28;20453;-70
2022/12/15 08:05:03;;;;;;;48.90;25.73;;;;;;;;;;5115653;28;20450;-70
2022/12/15 08:07:30;;;;;;;47.80;24.63;;;;;;;;;;5115879;28;20473;-70
2022/12/15 08:09:59;;;;;;;51.33;25.13;;;;;;;;;;5115710;28;20807;-70
2022/12/15 08:12:27;;;;;;;45.00;23.40;;;;;;;;;;5115682;28;21048;-70
2022/12/15 08:14:54;;;;;;;54.27;26.87;;;;;;;;;;5115514;28;20834;-70
2022/12/15 08:17:21;;;;;;;55.50;27.60;;;;;;;;;;5115774;27;20840;-69
2022/12/15 08:19:48;;;;;;;83.47;41.37;;;;;;;;;;5115720;28;20809;-70
2022/12/15 08:22:16;;;;;;;56.23;28.87;;;;;;;;;;5115668;28;20437;-70
2022/12/15 08:24:43;;;;;;;36.73;20.07;;;;;;;;;;5115079;28;20454;-71
2022/12/15 08:27:11;;;;;;;55.93;28.50;;;;;;;;;;5115703;28;20473;-70
2022/12/15 08:29:38;;;;;;;38.87;22.60;;;;;;;;;;5115357;28;20454;-70
2022/12/15 08:32:06;;;;;;;46.07;26.97;;;;;;;;;;5114140;28;20496;-70
2022/12/15 08:34:33;;;;;;;48.80;26.40;;;;;;;;;;5114891;28;20472;-70
2022/12/15 08:37:00;;;;;;;55.93;28.67;;;;;;;;;;5115241;28;20827;-70
2022/12/15 08:39:28;;;;;;;53.80;26.23;;;;;;;;;;5115312;28;20457;-70
2022/12/15 08:41:56;;;;;;;59.83;28.90;;;;;;;;;;5115187;28;20453;-70
2022/12/15 08:44:24;;;;;;;52.13;26.83;;;;;;;;;;5114843;28;20446;-70
2022/12/15 08:46:51;;;;;;;43.23;23.70;;;;;;;;;;5114980;28;20959;-70
2022/12/15 08:49:19;;;;;;;51.07;25.70;;;;;;;;;;5115092;28;20449;-70
2022/12/15 08:51:46;;;;;;;52.03;28.27;;;;;;;;;;5114792;28;20494;-70
2022/12/15 08:54:13;;;;;;;49.87;26.20;;;;;;;;;;5114709;28;20446;-70
2022/12/15 08:56:40;;;;;;;69.67;29.93;;;;;;;;;;5114799;28;20456;-70
2022/12/15 08:59:08;;;;;;;56.20;27.30;;;;;;;;;;5114961;28;20518;-70
2022/12/15 09:01:39;;;;;;;56.50;29.17;;;;;;;;;;5114956;28;20532;-70
2022/12/15 09:04:06;;;;;;;49.50;26.90;;;;;;;;;;5114342;28;20852;-70
2022/12/15 09:06:34;;;;;;;52.17;29.00;;;;;;;;;;5114570;28;20449;-70
2022/12/15 09:09:02;;;;;;;51.20;27.10;;;;;;;;;;5114777;28;20445;-70
2022/12/15 09:11:30;;;;;;;46.03;26.77;;;;;;;;;;5114521;28;20485;-70
2022/12/15 09:13:58;;;;;;;50.23;27.90;;;;;;;;;;5114184;28;20446;-70
2022/12/15 09:16:26;;;;;;;45.27;25.00;;;;;;;;;;5114331;28;20457;-70
2022/12/15 09:18:56;;;;;;;57.80;26.60;;;;;;;;;;5114195;28;20492;-70
2022/12/15 09:21:25;;;;;;;54.93;27.50;;;;;;;;;;5114515;28;20954;-70
2022/12/15 09:23:52;;;;;;;46.60;26.10;;;;;;;;;;5114149;28;20548;-70
2022/12/15 09:26:21;;;;;;;49.07;24.80;;;;;;;;;;5114493;28;20820;-70
2022/12/15 09:28:48;;;;;;;57.53;28.73;;;;;;;;;;5114067;28;20488;-70
2022/12/15 09:31:16;;;;;;;47.33;27.77;;;;;;;;;;5112722;28;20485;-70
2022/12/15 09:33:44;;;;;;;52.93;26.20;;;;;;;;;;5113737;28;20934;-72
2022/12/15 09:36:13;;;;;;;50.23;27.47;;;;;;;;;;5114181;28;20499;-70
2022/12/15 09:38:42;;;;;;;48.07;25.20;;;;;;;;;;5113884;28;20656;-70
2022/12/15 09:41:14;;;;;;;48.13;26.57;;;;;;;;;;5114069;28;20446;-70
2022/12/15 09:43:45;;;;;;;47.43;27.57;;;;;;;;;;5113470;28;20461;-70
2022/12/15 09:46:17;;;;;;;53.10;26.67;;;;;;;;;;5114073;28;20961;-70
2022/12/15 09:48:46;;;;;;;54.37;27.70;;;;;;;;;;5113849;28;20838;-71
2022/12/15 09:51:17;;;;;;;47.90;27.27;;;;;;;;;;5113705;28;20489;-70
2022/12/15 09:53:44;;;;;;;51.63;29.80;;;;;;;;;;5113410;28;20450;-70
2022/12/15 09:56:15;;;;;;;49.60;27.07;;;;;;;;;;5113822;28;20448;-70
2022/12/15 09:58:45;;;;;;;50.83;26.63;;;;;;;;;;5113528;28;21047;-70
2022/12/15 10:01:17;;;;;;;41.60;22.40;;;;;;;;;;5113806;28;20961;-70
2022/12/15 10:03:50;;;;;;;47.17;24.70;;;;;;;;;;5113660;28;20460;-70
2022/12/15 10:06:20;;;;;;;48.27;26.03;;;;;;;;;;5113763;27;20829;-70
2022/12/15 10:08:48;;;;;;;46.47;24.33;;;;;;;;;;5113401;28;20970;-70
2022/12/15 10:11:25;;;;;;;51.00;24.43;;;;;;;;;;5113535;28;21023;-70
2022/12/15 10:13:55;;;;;;;61.97;29.90;;;;;;;;;;5113179;28;20475;-70
2022/12/15 10:16:25;;;;;;;70.70;36.80;;;;;;;;;;5113377;28;20458;-72
2022/12/15 10:19:03;;;;;;;45.00;25.57;;;;;;;;;;5113206;28;20850;-69
2022/12/15 10:21:32;;;;;;;53.97;25.07;;;;;;;;;;5113205;28;20453;-70
2022/12/15 10:24:02;;;;;;;57.93;29.60;;;;;;;;;;5112412;28;20461;-71
2022/12/15 10:26:32;;;;;;;47.67;24.07;;;;;;;;;;5113443;28;20481;-70
2022/12/15 10:29:06;;;;;;;55.87;28.30;;;;;;;;;;5113458;28;20474;-71
2022/12/15 10:31:35;;;;;;;57.97;27.47;;;;;;;;;;5113128;27;20477;-70
2022/12/15 10:34:09;;;;;;;46.47;26.27;;;;;;;;;;5112581;28;20460;-70
2022/12/15 10:36:38;;;;;;;55.90;27.23;;;;;;;;;;5113181;28;20504;-70
2022/12/15 10:39:05;;;;;;;60.67;26.27;;;;;;;;;;5113274;28;20971;-70
2022/12/15 10:41:33;;;;;;;47.27;25.17;;;;;;;;;;5112950;28;20450;-70
2022/12/15 10:44:01;;;;;;;51.33;27.53;;;;;;;;;;5112414;28;20469;-71
2022/12/15 10:46:30;;;;;;;55.83;31.83;;;;;;;;;;5113059;28;20480;-71
2022/12/15 10:48:58;;;;;;;51.30;27.63;;;;;;;;;;5113077;28;20552;-70
2022/12/15 10:51:28;;;;;;;45.83;23.87;;;;;;;;;;5112965;28;20534;-71
2022/12/15 10:54:04;;;;;;;51.70;26.30;;;;;;;;;;5112476;28;20457;-70
2022/12/15 10:56:32;;;;;;;48.17;25.43;;;;;;;;;;5113103;28;20826;-71
2022/12/15 10:59:00;;;;;;;46.40;26.83;;;;;;;;;;5112774;28;20464;-71
2022/12/15 11:01:28;;;;;;;52.23;27.60;;;;;;;;;;5113028;28;20857;-71
2022/12/15 11:03:55;;;;;;;47.53;24.37;;;;;;;;;;5112554;28;20450;-71
2022/12/15 11:06:24;;;;;;;50.00;25.13;;;;;;;;;;5112879;28;20457;-71
2022/12/15 11:08:52;;;;;;;49.77;24.57;;;;;;;;;;5112702;28;20466;-72
2022/12/15 11:14:15;;;;;;;46.90;26.80;;;;;;;;;;5112578;28;20515;-70
2022/12/15 11:16:50;;;;;;;55.23;26.10;;;;;;;;;;5112666;28;20453;-70
2022/12/15 11:19:28;;;;;;;48.60;25.03;;;;;;;;;;5112930;28;20441;-71
2022/12/15 11:21:58;;;;;;;47.10;24.33;;;;;;;;;;5112782;28;20441;-71
2022/12/15 11:24:30;;;;;;;52.73;27.00;;;;;;;;;;5112402;28;20449;-71
2022/12/15 11:27:02;;;;;;;45.90;25.47;;;;;;;;;;5112765;28;20468;-71
2022/12/15 11:29:33;;;;;;;52.90;30.57;;;;;;;;;;5112765;28;20445;-71
2022/12/15 11:32:00;;;;;;;55.37;31.60;;;;;;;;;;5110577;28;20489;-71
2022/12/15 11:34:32;;;;;;;47.37;25.73;;;;;;;;;;5112464;28;20461;-71
2022/12/15 11:37:14;;;;;;;53.87;30.00;;;;;;;;;;5116651;28;21012;-71
2022/12/15 11:39:51;;;;;;;50.07;25.93;;;;;;;;;;5116447;28;20446;-71
2022/12/15 11:42:25;;;;;;;52.13;25.13;;;;;;;;;;5116496;28;20445;-73
2022/12/15 11:45:00;;;;;;;43.20;22.03;;;;;;;;;;5115787;28;20452;-70
2022/12/15 11:47:32;;;;;;;45.83;21.67;;;;;;;;;;5116266;28;20479;-70
2022/12/15 11:50:07;;;;;;;48.30;23.33;;;;;;;;;;5116302;28;20804;-71
2022/12/15 11:52:38;;;;;;;42.80;23.27;;;;;;;;;;5116571;28;20828;-71
2022/12/15 11:55:10;;;;;;;46.03;23.67;;;;;;;;;;5115658;28;20973;-71
2022/12/15 11:57:49;;;;;;;44.90;23.03;;;;;;;;;;5116080;28;20469;-71
2022/12/15 12:00:16;;;;;;;55.60;28.77;;;;;;;;;;5115985;28;20454;-71
2022/12/15 12:02:49;;;;;;;52.47;27.77;;;;;;;;;;5115876;28;20446;-71
2022/12/15 12:05:34;;;;;;;48.47;25.77;;;;;;;;;;5115522;28;20499;-71
2022/12/15 12:08:03;;;;;;;48.40;25.00;;;;;;;;;;5115604;28;20473;-71
2022/12/15 12:10:33;;;;;;;47.83;27.20;;;;;;;;;;5115929;28;20453;-71
2022/12/15 12:13:12;;;;;;;40.70;22.33;;;;;;;;;;5115814;28;20485;-71
2022/12/15 12:15:46;;;;;;;52.23;26.60;;;;;;;;;;5115358;28;20450;-70
2022/12/15 12:18:16;;;;;;;50.27;30.80;;;;;;;;;;5115717;28;20990;-71
2022/12/15 12:20:45;;;;;;;36.17;22.57;;;;;;;;;;5115746;28;20934;-71
2022/12/15 12:23:16;;;;;;;41.87;23.10;;;;;;;;;;5103867;28;20459;-71
2022/12/15 12:25:45;;;;;;;39.60;20.20;;;;;;;;;;5091802;28;20543;-71
2022/12/15 12:28:17;;;;;;;39.43;21.80;;;;;;;;;;5093444;28;20479;-72
2022/12/15 12:30:45;;;;;;;38.00;20.57;;;;;;;;;;5092032;28;20972;-71
2022/12/15 12:33:17;;;;;;;44.73;23.10;;;;;;;;;;5093692;28;20513;-72
2022/12/15 12:35:47;;;;;;;42.33;23.17;;;;;;;;;;5092329;28;20459;-71
2022/12/15 12:38:17;;;;;;;45.07;25.63;;;;;;;;;;5093032;28;20473;-71
2022/12/15 12:40:52;;;;;;;43.60;25.67;;;;;;;;;;5092856;28;20523;-72
2022/12/15 12:43:27;;;;;;;38.90;20.30;;;;;;;;;;5093455;28;20453;-72
2022/12/15 12:45:56;;;;;;;34.73;18.60;;;;;;;;;;5092737;28;20473;-72
2022/12/15 12:48:29;;;;;;;42.00;22.07;;;;;;;;;;5092507;28;20483;-72
2022/12/15 12:51:09;;;;;;;46.43;25.00;;;;;;;;;;5093206;28;20443;-74
2022/12/15 12:53:36;;;;;;;40.50;21.90;;;;;;;;;;5092429;28;21062;-72
2022/12/15 12:56:03;;;;;;;43.97;24.90;;;;;;;;;;5092907;28;20446;-72
2022/12/15 12:58:33;;;;;;;40.47;21.73;;;;;;;;;;5092704;28;20497;-73
2022/12/15 13:01:18;;;;;;;45.20;25.40;;;;;;;;;;5093404;28;20450;-72
2022/12/15 13:03:47;;;;;;;45.20;23.80;;;;;;;;;;5093822;28;20507;-72
2022/12/15 13:06:21;;;;;;;37.20;21.30;;;;;;;;;;5094290;28;20834;-72
2022/12/15 13:08:49;;;;;;;51.90;27.00;;;;;;;;;;5094349;28;20504;-72
2022/12/15 13:11:41;;;;;;;45.60;26.10;;;;;;;;;;5093680;28;20458;-72
2022/12/15 13:14:14;;;;;;;58.13;27.83;;;;;;;;;;5078561;28;20481;-74
2022/12/15 13:16:42;;;;;;;67.27;26.70;;;;;;;;;;5093985;28;20477;-72
2022/12/15 13:19:09;;;;;;;67.40;28.67;;;;;;;;;;5094200;28;20457;-72
2022/12/15 13:21:51;;;;;;;30.77;19.23;;;;;;;;;;5093649;28;20450;-72
2022/12/15 13:24:22;;;;;;;48.03;25.37;;;;;;;;;;5093717;28;20454;-73
2022/12/15 13:26:49;;;;;;;53.00;24.90;;;;;;;;;;5092968;28;20451;-72
2022/12/15 13:29:20;;;;;;;42.83;23.50;;;;;;;;;;5094029;28;20455;-72
2022/12/15 13:31:49;;;;;;;49.67;25.93;;;;;;;;;;5093830;28;20461;-72
2022/12/15 13:34:18;;;;;;;57.43;25.43;;;;;;;;;;5093741;28;21110;-72
2022/12/15 13:37:07;;;;;;;49.17;25.50;;;;;;;;;;5093434;28;20460;-72
2022/12/15 13:39:35;;;;;;;55.80;26.40;;;;;;;;;;5093784;28;20486;-72
2022/12/15 13:42:21;;;;;;;56.70;27.80;;;;;;;;;;5093790;28;20499;-72
2022/12/15 13:44:51;;;;;;;51.80;26.70;;;;;;;;;;5093020;28;20821;-73
2022/12/15 13:47:22;;;;;;;42.00;19.73;;;;;;;;;;5093951;28;20467;-74
2022/12/15 13:49:52;;;;;;;38.33;21.77;;;;;;;;;;5093571;28;20955;-72
2022/12/15 13:52:27;;;;;;;53.63;27.70;;;;;;;;;;5093511;28;20482;-72
2022/12/15 13:54:55;;;;;;;36.87;20.17;;;;;;;;;;5092991;28;20451;-72
2022/12/15 13:57:23;;;;;;;46.43;23.20;;;;;;;;;;5093522;28;20476;-71
2022/12/15 13:59:53;;;;;;;43.73;23.03;;;;;;;;;;5092497;28;20502;-72
2022/12/15 14:02:23;;;;;;;51.70;27.70;;;;;;;;;;5093424;28;20442;-72
2022/12/15 14:05:03;;;;;;;72.80;30.37;;;;;;;;;;5092874;28;20450;-72
2022/12/15 14:07:31;;;;;;;46.23;25.23;;;;;;;;;;5093283;28;20983;-72
2022/12/15 14:09:58;;;;;;;61.77;28.07;;;;;;;;;;5093426;28;20450;-71
2022/12/15 14:12:25;;;;;;;49.60;27.77;;;;;;;;;;5093111;28;20478;-72
2022/12/15 14:14:54;;;;;;;49.30;27.20;;;;;;;;;;5092709;28;20450;-72
2022/12/15 14:17:22;;;;;;;69.73;30.80;;;;;;;;;;5093063;28;20516;-71
2022/12/15 14:19:50;;;;;;;66.27;31.37;;;;;;;;;;5093117;28;20452;-71
2022/12/15 14:22:22;;;;;;;71.57;29.07;;;;;;;;;;5093250;28;20940;-71
2022/12/15 14:24:50;;;;;;;43.87;20.87;;;;;;;;;;5092520;28;20451;-72
2022/12/15 14:27:23;;;;;;;58.60;26.90;;;;;;;;;;5092169;28;20471;-71
2022/12/15 14:29:50;;;;;;;48.33;22.53;;;;;;;;;;5092776;28;20457;-71
2022/12/15 14:32:19;;;;;;;60.80;29.93;;;;;;;;;;5091762;28;20802;-71
2022/12/15 14:34:49;;;;;;;61.13;28.87;;;;;;;;;;5092529;28;20459;-71
2022/12/15 14:37:18;;;;;;;55.93;30.77;;;;;;;;;;5093002;28;20474;-72
2022/12/15 14:39:47;;;;;;;52.93;25.53;;;;;;;;;;5092623;28;20493;-71
2022/12/15 14:42:17;;;;;;;43.40;24.57;;;;;;;;;;5092936;28;20450;-71
2022/12/15 14:44:45;;;;;;;63.67;32.57;;;;;;;;;;5092696;28;20451;-71
2022/12/15 14:47:18;;;;;;;73.53;33.83;;;;;;;;;;5092745;28;20505;-71
2022/12/15 14:49:47;;;;;;;49.10;24.27;;;;;;;;;;5092789;28;20447;-72
2022/12/15 14:52:27;;;;;;;69.53;34.67;;;;;;;;;;5092663;28;20479;-72
2022/12/15 14:54:56;;;;;;;97.07;41.20;;;;;;;;;;5092277;28;20454;-71
2022/12/15 14:57:25;;;;;;;65.50;32.97;;;;;;;;;;5092419;28;20475;-72
2022/12/15 14:59:53;;;;;;;73.87;35.83;;;;;;;;;;5092704;28;20447;-71
2022/12/15 15:02:21;;;;;;;66.10;32.57;;;;;;;;;;5092545;28;20447;-72
2022/12/15 15:04:59;;;;;;;52.40;23.97;;;;;;;;;;5097242;28;20457;-72
2022/12/15 15:07:29;;;;;;;66.93;32.50;;;;;;;;;;5112699;28;20477;-73
2022/12/15 15:09:57;;;;;;;79.17;36.60;;;;;;;;;;5110972;27;20453;-71
2022/12/15 15:12:25;;;;;;;73.93;34.20;;;;;;;;;;5117135;28;20460;-71
2022/12/15 15:14:54;;;;;;;80.77;39.10;;;;;;;;;;5116467;28;20816;-72
2022/12/15 15:17:26;;;;;;;62.77;30.20;;;;;;;;;;5116845;28;20489;-71
2022/12/15 15:19:55;;;;;;;67.80;34.50;;;;;;;;;;5116927;28;20445;-71
2022/12/15 15:22:30;;;;;;;67.77;31.37;;;;;;;;;;5116995;28;20917;-71
2022/12/15 15:24:58;;;;;;;76.23;34.43;;;;;;;;;;5116443;28;20460;-71
2022/12/15 15:27:26;;;;;;;68.40;30.37;;;;;;;;;;5116575;28;20473;-71
2022/12/15 15:29:53;;;;;;;75.13;39.07;;;;;;;;;;5116659;28;21033;-71
2022/12/15 15:32:21;;;;;;;64.37;30.03;;;;;;;;;;5113807;28;20464;-73
2022/12/15 15:34:49;;;;;;;69.47;34.93;;;;;;;;;;5095170;28;20477;-71
2022/12/15 15:37:18;;;;;;;76.33;41.57;;;;;;;;;;5095160;28;20469;-71
2022/12/15 15:39:48;;;;;;;79.50;42.03;;;;;;;;;;5096620;28;21003;-70
2022/12/15 15:42:15;;;;;;;86.43;45.97;;;;;;;;;;5115712;27;20860;-70
2022/12/15 15:44:42;;;;;;;104.77;61.20;;;;;;;;;;5101672;28;20457;-73
2022/12/15 15:47:17;;;;;;;116.70;62.27;;;;;;;;;;5103373;28;20480;-70
2022/12/15 15:49:45;;;;;;;143.90;78.90;;;;;;;;;;5093664;28;21008;-71
2022/12/15 15:52:13;;;;;;;88.67;41.70;;;;;;;;;;5094098;28;20819;-71
2022/12/15 15:54:41;;;;;;;193.23;88.20;;;;;;;;;;5093033;28;20851;-72
2022/12/15 15:57:12;;;;;;;245.23;113.90;;;;;;;;;;5093869;28;20975;-72
2022/12/15 15:59:41;;;;;;;89.13;45.93;;;;;;;;;;5093700;28;20447;-71
2022/12/15 16:02:09;;;;;;;106.87;64.20;;;;;;;;;;5093862;28;20459;-71
2022/12/15 16:04:39;;;;;;;67.80;30.73;;;;;;;;;;5093605;28;20447;-71
2022/12/15 16:07:07;;;;;;;78.87;36.60;;;;;;;;;;5093548;28;21042;-70
2022/12/15 16:09:35;;;;;;;63.63;33.13;;;;;;;;;;5093355;28;20446;-71
2022/12/15 16:12:02;;;;;;;75.47;38.70;;;;;;;;;;5093898;28;20450;-71
2022/12/15 16:14:31;;;;;;;73.77;34.03;;;;;;;;;;5093239;28;20567;-70
2022/12/15 16:16:58;;;;;;;76.07;37.87;;;;;;;;;;5092947;28;20789;-70
2022/12/15 16:19:27;;;;;;;68.57;34.30;;;;;;;;;;5093599;28;20948;-71
2022/12/15 16:21:55;;;;;;;69.37;35.77;;;;;;;;;;5092318;28;20959;-70
2022/12/15 16:24:23;;;;;;;69.17;35.50;;;;;;;;;;5092782;28;20446;-72
2022/12/15 16:26:50;;;;;;;88.00;36.77;;;;;;;;;;5093219;28;20452;-71
2022/12/15 16:29:19;;;;;;;70.27;29.03;;;;;;;;;;5093577;28;20977;-71
2022/12/15 16:31:48;;;;;;;91.83;47.37;;;;;;;;;;5091566;28;20516;-72
2022/12/15 16:34:16;;;;;;;84.07;39.87;;;;;;;;;;5092843;28;20494;-72
2022/12/15 16:36:43;;;;;;;99.97;46.47;;;;;;;;;;5092913;28;20461;-72
2022/12/15 16:39:21;;;;;;;133.20;53.57;;;;;;;;;;5092615;28;20551;-71
2022/12/15 16:41:48;;;;;;;99.27;46.17;;;;;;;;;;5092941;28;20816;-72
2022/12/15 16:44:15;;;;;;;84.57;40.40;;;;;;;;;;5092796;28;20446;-71
2022/12/15 16:46:42;;;;;;;85.13;45.47;;;;;;;;;;5092249;28;20821;-72
2022/12/15 16:49:11;;;;;;;107.80;52.00;;;;;;;;;;5092727;28;20455;-70